createdAt,value
2023-07-24T00:00:23.890Z,99122.81
2023-07-24T00:00:55.769Z,99123.63
2023-07-24T00:01:27.705Z,99116.34
2023-07-24T00:01:59.782Z,99115.50
2023-07-24T00:02:31.716Z,99112.13
2023-07-24T00:03:04.267Z,99119.06
2023-07-24T00:03:36.388Z,99122.47
2023-07-24T00:04:08.298Z,99116.56
2023-07-24T00:04:40.227Z,99114.84
2023-07-24T00:05:12.152Z,99116.72
2023-07-24T00:05:44.129Z,99115.53
2023-07-24T00:06:16.069Z,99121.97
2023-07-24T00:06:47.996Z,99123.81
2023-07-24T00:07:19.944Z,99120.09
2023-07-24T00:07:51.925Z,99119.06
2023-07-24T00:08:23.809Z,99119.91
2023-07-24T00:08:55.781Z,99112.47
2023-07-24T00:09:27.718Z,99116.19
2023-07-24T00:09:59.712Z,99118.91
2023-07-24T00:10:31.685Z,99118.25
2023-07-24T00:11:05.638Z,99122.13
2023-07-24T00:11:37.548Z,99119.41
2023-07-24T00:12:09.714Z,99118.25
2023-07-24T00:12:41.760Z,99111.47
2023-07-24T00:13:13.693Z,99118.03
2023-07-24T00:13:46.349Z,99115.50
2023-07-24T00:14:18.965Z,99115.66
2023-07-24T00:14:51.000Z,99114.81
2023-07-24T00:15:23.173Z,99114.78
2023-07-24T00:15:55.048Z,99111.78
2023-07-24T00:16:27.013Z,99119.88
2023-07-24T00:16:59.203Z,99116.69
2023-07-24T00:17:31.140Z,99114.13
2023-07-24T00:18:03.143Z,99114.13
2023-07-24T00:18:35.223Z,99118.34
2023-07-24T00:19:07.202Z,99114.63
2023-07-24T00:19:39.194Z,99121.38
2023-07-24T00:20:11.357Z,99117.50
2023-07-24T00:20:43.314Z,99115.47
2023-07-24T00:21:15.276Z,99118.34
2023-07-24T00:21:47.200Z,99113.78
2023-07-24T00:22:19.119Z,99112.59
2023-07-24T00:22:51.103Z,99110.72
2023-07-24T00:23:23.044Z,99111.41
2023-07-24T00:23:54.990Z,99115.28
2023-07-24T00:24:26.973Z,99117.00
2023-07-24T00:24:58.892Z,99113.44
2023-07-24T00:25:31.278Z,99112.94
2023-07-24T00:26:03.140Z,99106.31
2023-07-24T00:26:35.004Z,99112.75
2023-07-24T00:27:06.987Z,99113.78
2023-07-24T00:27:38.961Z,99116.13
2023-07-24T00:28:10.845Z,99117.31
2023-07-24T00:28:42.771Z,99112.91
2023-07-24T00:29:14.743Z,99119.19
2023-07-24T00:29:46.684Z,99112.06
2023-07-24T00:30:18.705Z,99118.81
2023-07-24T00:30:50.728Z,99114.94
2023-07-24T00:31:22.676Z,99123.75
2023-07-24T00:31:54.637Z,99121.38
2023-07-24T00:32:26.527Z,99122.53
2023-07-24T00:32:58.652Z,99121.34
2023-07-24T00:33:30.646Z,99119.13
2023-07-24T00:34:02.625Z,99122.84
2023-07-24T00:34:34.788Z,99116.41
2023-07-24T00:35:07.379Z,99121.31
2023-07-24T00:35:39.339Z,99121.66
2023-07-24T00:36:11.271Z,99126.41
2023-07-24T00:36:43.201Z,99122.66
2023-07-24T00:37:15.136Z,99121.66
2023-07-24T00:37:47.032Z,99112.34
2023-07-24T00:38:18.928Z,99121.84
2023-07-24T00:38:50.859Z,99117.59
2023-07-24T00:39:22.878Z,99115.75
2023-07-24T00:39:54.826Z,99120.13
2023-07-24T00:40:26.828Z,99122.84
2023-07-24T00:40:58.995Z,99114.56
2023-07-24T00:41:30.950Z,99113.91
2023-07-24T00:42:03.489Z,99114.56
2023-07-24T00:42:35.406Z,99113.56
2023-07-24T00:43:07.324Z,99113.56
2023-07-24T00:43:39.306Z,99116.41
2023-07-24T00:44:11.300Z,99116.91
2023-07-24T00:44:43.189Z,99115.56
2023-07-24T00:45:15.624Z,99119.28
2023-07-24T00:45:49.339Z,99109.94
2023-07-24T00:46:21.961Z,99116.56
2023-07-24T00:46:54.795Z,99109.28
2023-07-24T00:47:28.687Z,99109.28
2023-07-24T00:48:01.672Z,99123.97
2023-07-24T00:48:33.879Z,99113.44
2023-07-24T00:49:06.540Z,99102.97
2023-07-24T00:49:38.828Z,99107.69
2023-07-24T00:50:13.761Z,99106.66
2023-07-24T00:50:47.121Z,99107.38
2023-07-24T00:51:19.581Z,99110.06
2023-07-24T00:51:52.079Z,99099.41
2023-07-24T00:52:24.246Z,99095.66
2023-07-24T00:52:56.490Z,99101.91
2023-07-24T00:53:28.801Z,99103.78
2023-07-24T00:54:03.153Z,99097.84
2023-07-24T00:54:35.854Z,99097.84
2023-07-24T00:55:08.726Z,99098.84
2023-07-24T00:55:41.736Z,99105.97
2023-07-24T00:56:13.712Z,99101.56
2023-07-24T00:56:46.518Z,99102.91
2023-07-24T00:57:18.599Z,99095.84
2023-07-24T00:57:51.247Z,99100.22
2023-07-24T00:58:23.782Z,99101.25
2023-07-24T00:58:59.520Z,99101.59
2023-07-24T00:59:32.155Z,99096.69
2023-07-24T01:00:05.089Z,99099.41
2023-07-24T01:00:39.484Z,99095.84
2023-07-24T01:01:12.228Z,99098.25
2023-07-24T01:01:45.461Z,99094.50
2023-07-24T01:02:17.469Z,99104.66
2023-07-24T01:02:49.850Z,99095.53
2023-07-24T01:03:29.127Z,99102.47
2023-07-24T01:04:04.598Z,99099.75
2023-07-24T01:04:36.573Z,99097.06
2023-07-24T01:05:10.092Z,99098.75
2023-07-24T01:05:42.377Z,99106.56
2023-07-24T01:06:14.350Z,99099.31
2023-07-24T01:06:46.576Z,99094.56
2023-07-24T01:07:18.684Z,99095.28
2023-07-24T01:07:50.629Z,99096.28
2023-07-24T01:08:22.576Z,99098.63
2023-07-24T01:08:54.473Z,99093.56
2023-07-24T01:09:26.457Z,99101.84
2023-07-24T01:09:58.706Z,99100.31
2023-07-24T01:10:30.788Z,99095.75
2023-07-24T01:11:26.044Z,99086.44
2023-07-24T01:12:04.022Z,99091.38
2023-07-24T01:13:20.211Z,99091.22
2023-07-24T01:13:59.077Z,99089.34
2023-07-24T01:14:51.058Z,99081.22
2023-07-24T01:15:35.401Z,99089.19
2023-07-24T01:16:14.490Z,99091.22
2023-07-24T01:16:49.837Z,99085.97
2023-07-24T01:17:26.030Z,99087.81
2023-07-24T01:18:04.675Z,99092.56
2023-07-24T01:18:40.371Z,99091.88
2023-07-24T01:19:39.087Z,99094.56
2023-07-24T01:20:14.089Z,99091.88
2023-07-24T01:20:52.560Z,99087.97
2023-07-24T01:21:51.356Z,99091.75
2023-07-24T01:22:29.112Z,99096.13
2023-07-24T01:23:35.064Z,99095.28
2023-07-24T01:24:49.272Z,99098.47
2023-07-24T01:25:37.969Z,99094.97
2023-07-24T01:26:10.939Z,99096.47
2023-07-24T01:26:43.342Z,99092.91
2023-07-24T01:27:28.053Z,99093.78
2023-07-24T01:27:59.987Z,99099.19
2023-07-24T01:28:32.024Z,99094.78
2023-07-24T01:29:03.891Z,99092.25
2023-07-24T01:29:36.200Z,99094.25
2023-07-24T01:30:08.802Z,99089.03
2023-07-24T01:30:40.813Z,99085.63
2023-07-24T01:31:13.041Z,99090.16
2023-07-24T01:31:45.056Z,99094.84
2023-07-24T01:32:17.091Z,99095.84
2023-07-24T01:32:50.379Z,99093.78
2023-07-24T01:33:23.468Z,99093.44
2023-07-24T01:33:55.457Z,99088.84
2023-07-24T01:34:27.470Z,99090.88
2023-07-24T01:34:59.369Z,99090.69
2023-07-24T01:35:33.216Z,99092.34
2023-07-24T01:36:06.988Z,99084.19
2023-07-24T01:36:39.244Z,99086.53
2023-07-24T01:37:13.823Z,99087.91
2023-07-24T01:37:48.173Z,99092.13
2023-07-24T01:38:20.304Z,99082.78
2023-07-24T01:38:52.746Z,99084.97
2023-07-24T01:39:24.965Z,99086.13
2023-07-24T01:39:58.413Z,99084.56
2023-07-24T01:40:31.303Z,99080.34
2023-07-24T01:41:05.088Z,99087.09
2023-07-24T01:41:37.455Z,99084.69
2023-07-24T01:42:10.403Z,99089.09
2023-07-24T01:42:42.778Z,99085.69
2023-07-24T01:43:15.536Z,99085.31
2023-07-24T01:43:48.153Z,99086.47
2023-07-24T01:44:20.253Z,99089.03
2023-07-24T01:44:56.445Z,99084.78
2023-07-24T01:45:28.377Z,99083.25
2023-07-24T01:46:00.402Z,99071.75
2023-07-24T01:46:32.471Z,99078.31
2023-07-24T01:47:05.200Z,99083.56
2023-07-24T01:47:37.203Z,99082.88
2023-07-24T01:48:09.246Z,99081.34
2023-07-24T01:48:41.249Z,99071.59
2023-07-24T01:49:13.213Z,99079.16
2023-07-24T01:49:45.204Z,99077.38
2023-07-24T01:50:17.262Z,99077.84
2023-07-24T01:50:49.319Z,99075.34
2023-07-24T01:51:21.191Z,99075.28
2023-07-24T01:51:53.104Z,99070.03
2023-07-24T01:52:25.319Z,99072.63
2023-07-24T01:52:57.191Z,99073.66
2023-07-24T01:53:29.072Z,99075.38
2023-07-24T01:54:01.003Z,99075.56
2023-07-24T01:54:32.908Z,99072.91
2023-07-24T01:55:05.286Z,99073.22
2023-07-24T01:55:37.312Z,99078.47
2023-07-24T01:56:09.276Z,99076.19
2023-07-24T01:56:41.298Z,99071.06
2023-07-24T01:57:13.324Z,99074.28
2023-07-24T01:57:45.315Z,99078.31
2023-07-24T01:58:17.200Z,99069.50
2023-07-24T01:58:49.152Z,99075.84
2023-07-24T01:59:21.111Z,99066.50
2023-07-24T01:59:53.093Z,99070.59
2023-07-24T02:00:25.028Z,99070.44
2023-07-24T02:00:57.560Z,99068.22
2023-07-24T02:01:29.480Z,99067.91
2023-07-24T02:02:01.416Z,99068.47
2023-07-24T02:02:33.394Z,99067.81
2023-07-24T02:03:05.452Z,99068.84
2023-07-24T02:03:37.487Z,99068.84
2023-07-24T02:04:09.407Z,99069.50
2023-07-24T02:04:41.421Z,99074.56
2023-07-24T02:05:13.587Z,99067.50
2023-07-24T02:05:51.680Z,99060.06
2023-07-24T02:06:23.710Z,99063.28
2023-07-24T02:06:55.671Z,99066.34
2023-07-24T02:07:27.627Z,99067.03
2023-07-24T02:07:59.559Z,99056.59
2023-07-24T02:08:31.492Z,99060.81
2023-07-24T02:09:03.457Z,99063.19
2023-07-24T02:09:35.959Z,99063.88
2023-07-24T02:10:08.537Z,99063.88
2023-07-24T02:10:40.649Z,99057.25
2023-07-24T02:11:12.579Z,99066.41
2023-07-24T02:11:44.511Z,99065.69
2023-07-24T02:12:16.439Z,99063.00
2023-07-24T02:12:48.426Z,99064.50
2023-07-24T02:13:20.381Z,99059.94
2023-07-24T02:13:52.332Z,99062.66
2023-07-24T02:14:25.535Z,99059.09
2023-07-24T02:14:58.492Z,99071.06
2023-07-24T02:15:30.508Z,99064.13
2023-07-24T02:16:02.507Z,99060.44
2023-07-24T02:16:34.696Z,99065.13
2023-07-24T02:17:06.845Z,99060.22
2023-07-24T02:17:39.743Z,99056.00
2023-07-24T02:18:11.786Z,99053.28
2023-07-24T02:18:44.424Z,99063.44
2023-07-24T02:19:16.297Z,99060.88
2023-07-24T02:19:48.268Z,99053.75
2023-07-24T02:20:20.159Z,99058.31
2023-07-24T02:20:52.634Z,99058.31
2023-07-24T02:21:24.563Z,99052.25
2023-07-24T02:21:56.465Z,99061.72
2023-07-24T02:22:28.417Z,99051.28
2023-07-24T02:23:00.284Z,99061.56
2023-07-24T02:23:32.218Z,99051.56
2023-07-24T02:24:04.371Z,99054.75
2023-07-24T02:24:36.454Z,99053.19
2023-07-24T02:25:08.896Z,99049.31
2023-07-24T02:25:40.813Z,99046.44
2023-07-24T02:26:12.778Z,99051.16
2023-07-24T02:26:44.709Z,99052.34
2023-07-24T02:27:29.903Z,99048.78
2023-07-24T02:28:01.821Z,99044.22
2023-07-24T02:28:33.834Z,99050.16
2023-07-24T02:29:05.852Z,99051.34
2023-07-24T02:29:37.888Z,99045.22
2023-07-24T02:30:10.090Z,99048.44
2023-07-24T02:30:42.132Z,99052.69
2023-07-24T02:31:14.180Z,99050.50
2023-07-24T02:31:46.145Z,99044.09
2023-07-24T02:32:18.123Z,99047.50
2023-07-24T02:32:50.120Z,99043.63
2023-07-24T02:33:22.130Z,99047.84
2023-07-24T02:33:54.058Z,99050.38
2023-07-24T02:34:27.544Z,99046.50
2023-07-24T02:34:59.457Z,99052.75
2023-07-24T02:35:31.354Z,99045.47
2023-07-24T02:36:03.382Z,99049.50
2023-07-24T02:36:35.341Z,99044.28
2023-07-24T02:37:07.305Z,99047.78
2023-07-24T02:37:39.232Z,99046.13
2023-07-24T02:38:11.322Z,99052.38
2023-07-24T02:38:43.245Z,99046.78
2023-07-24T02:39:15.145Z,99046.66
2023-07-24T02:39:47.789Z,99050.03
2023-07-24T02:40:19.707Z,99047.50
2023-07-24T02:40:51.670Z,99047.31
2023-07-24T02:41:23.588Z,99050.03
2023-07-24T02:41:55.491Z,99048.03
2023-07-24T02:42:27.373Z,99050.38
2023-07-24T02:42:59.290Z,99050.22
2023-07-24T02:43:31.173Z,99055.31
2023-07-24T02:44:05.150Z,99049.72
2023-07-24T02:44:37.413Z,99058.34
2023-07-24T02:45:12.239Z,99054.50
2023-07-24T02:45:44.263Z,99047.91
2023-07-24T02:46:16.273Z,99051.47
2023-07-24T02:46:48.211Z,99056.03
2023-07-24T02:47:20.116Z,99056.03
2023-07-24T02:47:52.030Z,99051.13
2023-07-24T02:48:24.054Z,99052.13
2023-07-24T02:48:56.043Z,99054.84
2023-07-24T02:49:27.954Z,99054.69
2023-07-24T02:49:59.912Z,99051.28
2023-07-24T02:50:31.804Z,99043.34
2023-07-24T02:51:03.840Z,99049.09
2023-07-24T02:51:35.761Z,99050.09
2023-07-24T02:52:07.668Z,99048.59
2023-07-24T02:52:39.566Z,99049.25
2023-07-24T02:53:12.028Z,99049.41
2023-07-24T02:53:44.049Z,99048.25
2023-07-24T02:54:15.965Z,99045.53
2023-07-24T02:54:47.913Z,99048.72
2023-07-24T02:55:19.862Z,99050.59
2023-07-24T02:55:51.797Z,99047.03
2023-07-24T02:56:23.952Z,99051.44
2023-07-24T02:56:55.842Z,99043.31
2023-07-24T02:57:27.759Z,99058.53
2023-07-24T02:57:59.770Z,99047.03
2023-07-24T02:58:31.691Z,99054.13
2023-07-24T02:59:03.565Z,99048.06
2023-07-24T02:59:36.544Z,99052.44
2023-07-24T03:00:09.068Z,99045.66
2023-07-24T03:00:41.658Z,99052.63
2023-07-24T03:01:15.368Z,99050.75
2023-07-24T03:01:47.311Z,99049.22
2023-07-24T03:02:19.209Z,99051.06
2023-07-24T03:02:51.822Z,99048.34
2023-07-24T03:03:23.883Z,99050.75
2023-07-24T03:03:55.963Z,99044.00
2023-07-24T03:04:27.960Z,99047.53
2023-07-24T03:04:59.983Z,99043.84
2023-07-24T03:05:32.586Z,99048.91
2023-07-24T03:06:04.562Z,99045.38
2023-07-24T03:06:37.257Z,99046.72
2023-07-24T03:07:09.155Z,99048.28
2023-07-24T03:07:41.115Z,99048.81
2023-07-24T03:08:13.027Z,99046.94
2023-07-24T03:08:44.894Z,99043.53
2023-07-24T03:09:16.817Z,99046.25
2023-07-24T03:09:48.827Z,99043.69
2023-07-24T03:10:20.759Z,99044.00
2023-07-24T03:10:52.718Z,99042.31
2023-07-24T03:11:24.633Z,99048.41
2023-07-24T03:11:56.562Z,99046.53
2023-07-24T03:12:28.509Z,99047.72
2023-07-24T03:13:00.480Z,99049.25
2023-07-24T03:13:32.576Z,99050.09
2023-07-24T03:14:04.502Z,99050.94
2023-07-24T03:14:36.378Z,99053.66
2023-07-24T03:15:08.832Z,99049.09
2023-07-24T03:15:40.818Z,99042.13
2023-07-24T03:16:12.929Z,99043.31
2023-07-24T03:16:44.794Z,99051.44
2023-07-24T03:17:16.706Z,99049.06
2023-07-24T03:17:48.709Z,99054.47
2023-07-24T03:18:21.031Z,99051.44
2023-07-24T03:18:52.976Z,99052.94
2023-07-24T03:19:24.948Z,99049.59
2023-07-24T03:19:56.829Z,99053.13
2023-07-24T03:20:28.769Z,99063.94
2023-07-24T03:21:00.870Z,99058.16
2023-07-24T03:21:32.836Z,99045.78
2023-07-24T03:22:04.902Z,99049.16
2023-07-24T03:22:36.838Z,99055.09
2023-07-24T03:23:08.792Z,99053.38
2023-07-24T03:23:40.717Z,99053.84
2023-07-24T03:24:12.701Z,99049.78
2023-07-24T03:24:44.740Z,99048.06
2023-07-24T03:25:16.741Z,99058.38
2023-07-24T03:25:48.773Z,99050.25
2023-07-24T03:26:20.689Z,99049.44
2023-07-24T03:26:52.564Z,99047.88
2023-07-24T03:27:24.479Z,99055.13
2023-07-24T03:27:56.393Z,99051.72
2023-07-24T03:28:28.367Z,99048.50
2023-07-24T03:29:01.434Z,99047.97
2023-07-24T03:29:33.418Z,99049.81
2023-07-24T03:30:05.990Z,99044.75
2023-07-24T03:30:38.083Z,99045.41
2023-07-24T03:31:10.159Z,99047.44
2023-07-24T03:31:42.150Z,99049.13
2023-07-24T03:32:15.538Z,99042.91
2023-07-24T03:32:47.565Z,99039.16
2023-07-24T03:33:19.530Z,99042.03
2023-07-24T03:33:51.457Z,99043.19
2023-07-24T03:34:23.390Z,99043.53
2023-07-24T03:34:55.310Z,99054.16
2023-07-24T03:35:27.359Z,99041.53
2023-07-24T03:35:59.227Z,99045.22
2023-07-24T03:36:31.516Z,99039.81
2023-07-24T03:37:03.831Z,99044.38
2023-07-24T03:37:39.557Z,99040.81
2023-07-24T03:38:11.486Z,99040.16
2023-07-24T03:38:43.415Z,99039.28
2023-07-24T03:39:15.378Z,99043.84
2023-07-24T03:39:47.382Z,99037.25
2023-07-24T03:40:19.312Z,99047.19
2023-07-24T03:40:51.279Z,99040.94
2023-07-24T03:41:23.225Z,99047.19
2023-07-24T03:41:55.116Z,99041.59
2023-07-24T03:42:28.718Z,99047.00
2023-07-24T03:43:00.628Z,99041.59
2023-07-24T03:43:32.618Z,99045.16
2023-07-24T03:44:04.678Z,99043.31
2023-07-24T03:44:36.635Z,99045.03
2023-07-24T03:45:09.478Z,99035.75
2023-07-24T03:45:41.433Z,99043.84
2023-07-24T03:46:13.407Z,99037.59
2023-07-24T03:46:45.360Z,99042.00
2023-07-24T03:47:17.398Z,99039.16
2023-07-24T03:47:49.308Z,99043.00
2023-07-24T03:48:21.248Z,99044.69
2023-07-24T03:48:53.481Z,99041.00
2023-07-24T03:49:25.387Z,99043.53
2023-07-24T03:49:57.656Z,99043.38
2023-07-24T03:50:30.985Z,99036.13
2023-07-24T03:51:02.959Z,99037.97
2023-07-24T03:51:34.975Z,99041.53
2023-07-24T03:52:06.949Z,99035.94
2023-07-24T03:52:38.970Z,99043.53
2023-07-24T03:53:10.906Z,99050.63
2023-07-24T03:53:42.799Z,99049.78
2023-07-24T03:54:14.685Z,99044.22
2023-07-24T03:54:46.673Z,99039.66
2023-07-24T03:55:18.632Z,99044.22
2023-07-24T03:55:50.716Z,99041.53
2023-07-24T03:56:22.595Z,99041.19
2023-07-24T03:56:54.525Z,99049.97
2023-07-24T03:57:26.476Z,99047.13
2023-07-24T03:57:58.344Z,99046.13
2023-07-24T03:58:30.226Z,99047.78
2023-07-24T03:59:02.141Z,99047.78
2023-07-24T03:59:34.120Z,99042.41
2023-07-24T04:00:06.868Z,99056.75
2023-07-24T04:00:38.916Z,99048.66
2023-07-24T04:01:11.244Z,99046.66
2023-07-24T04:01:43.212Z,99047.31
2023-07-24T04:02:15.166Z,99054.56
2023-07-24T04:02:48.187Z,99047.31
2023-07-24T04:03:20.329Z,99053.72
2023-07-24T04:03:53.541Z,99052.91
2023-07-24T04:04:25.844Z,99050.19
2023-07-24T04:04:57.804Z,99055.59
2023-07-24T04:05:29.689Z,99053.06
2023-07-24T04:06:02.006Z,99048.66
2023-07-24T04:06:33.966Z,99048.50
2023-07-24T04:07:06.828Z,99046.13
2023-07-24T04:07:39.008Z,99050.19
2023-07-24T04:08:11.043Z,99053.56
2023-07-24T04:08:43.037Z,99051.88
2023-07-24T04:09:17.625Z,99052.28
2023-07-24T04:09:49.548Z,99053.28
2023-07-24T04:10:21.476Z,99048.19
2023-07-24T04:10:53.772Z,99050.75
2023-07-24T04:11:25.744Z,99054.84
2023-07-24T04:11:57.653Z,99047.56
2023-07-24T04:12:30.811Z,99051.44
2023-07-24T04:13:02.756Z,99054.00
2023-07-24T04:13:34.688Z,99054.50
2023-07-24T04:14:06.603Z,99053.47
2023-07-24T04:14:38.487Z,99051.63
2023-07-24T04:15:10.587Z,99044.38
2023-07-24T04:15:42.945Z,99047.78
2023-07-24T04:16:14.850Z,99054.19
2023-07-24T04:16:47.116Z,99048.78
2023-07-24T04:17:19.507Z,99047.94
2023-07-24T04:17:51.479Z,99052.34
2023-07-24T04:18:23.373Z,99046.94
2023-07-24T04:18:55.276Z,99052.84
2023-07-24T04:19:27.202Z,99051.00
2023-07-24T04:19:59.173Z,99050.81
2023-07-24T04:20:31.118Z,99048.97
2023-07-24T04:21:03.306Z,99045.28
2023-07-24T04:21:35.291Z,99052.53
2023-07-24T04:22:07.173Z,99051.19
2023-07-24T04:22:39.384Z,99049.34
2023-07-24T04:23:11.331Z,99054.41
2023-07-24T04:23:43.250Z,99053.41
2023-07-24T04:24:15.213Z,99056.66
2023-07-24T04:24:47.120Z,99050.53
2023-07-24T04:25:19.140Z,99049.69
2023-07-24T04:25:51.763Z,99050.53
2023-07-24T04:26:23.733Z,99057.16
2023-07-24T04:26:55.757Z,99053.47
2023-07-24T04:27:27.801Z,99061.72
2023-07-24T04:27:59.769Z,99056.31
2023-07-24T04:28:31.713Z,99060.41
2023-07-24T04:29:03.651Z,99055.31
2023-07-24T04:29:35.604Z,99057.00
2023-07-24T04:30:08.265Z,99055.84
2023-07-24T04:30:40.490Z,99058.03
2023-07-24T04:31:12.619Z,99056.13
2023-07-24T04:31:44.583Z,99043.63
2023-07-24T04:32:16.472Z,99058.50
2023-07-24T04:32:48.381Z,99059.16
2023-07-24T04:33:20.284Z,99054.28
2023-07-24T04:33:52.203Z,99060.03
2023-07-24T04:34:24.136Z,99055.31
2023-07-24T04:34:56.140Z,99054.47
2023-07-24T04:35:28.313Z,99059.53
2023-07-24T04:36:00.318Z,99054.47
2023-07-24T04:36:32.529Z,99058.88
2023-07-24T04:37:04.942Z,99050.06
2023-07-24T04:37:37.432Z,99053.63
2023-07-24T04:38:09.466Z,99053.63
2023-07-24T04:38:41.365Z,99061.56
2023-07-24T04:39:13.265Z,99050.75
2023-07-24T04:39:45.279Z,99050.38
2023-07-24T04:40:17.267Z,99049.69
2023-07-24T04:40:49.192Z,99052.09
2023-07-24T04:41:21.098Z,99052.63
2023-07-24T04:41:53.023Z,99048.53
2023-07-24T04:42:25.012Z,99049.16
2023-07-24T04:42:57.062Z,99044.47
2023-07-24T04:43:29.794Z,99053.41
2023-07-24T04:44:01.707Z,99051.25
2023-07-24T04:44:33.722Z,99051.25
2023-07-24T04:45:06.100Z,99046.31
2023-07-24T04:45:38.011Z,99053.75
2023-07-24T04:46:09.931Z,99054.78
2023-07-24T04:46:41.868Z,99056.84
2023-07-24T04:47:13.827Z,99056.19
2023-07-24T04:47:45.842Z,99050.47
2023-07-24T04:48:17.763Z,99057.72
2023-07-24T04:48:49.700Z,99047.59
2023-07-24T04:49:21.614Z,99052.00
2023-07-24T04:49:53.531Z,99057.59
2023-07-24T04:50:25.469Z,99051.50
2023-07-24T04:50:58.150Z,99048.50
2023-07-24T04:51:30.054Z,99052.38
2023-07-24T04:52:02.000Z,99050.38
2023-07-24T04:52:33.860Z,99049.53
2023-07-24T04:53:05.740Z,99051.75
2023-07-24T04:53:37.623Z,99047.66
2023-07-24T04:54:09.964Z,99048.38
2023-07-24T04:54:41.885Z,99053.31
2023-07-24T04:55:13.873Z,99044.88
2023-07-24T04:55:47.376Z,99051.63
2023-07-24T04:56:19.314Z,99050.44
2023-07-24T04:56:51.336Z,99054.88
2023-07-24T04:57:23.375Z,99048.25
2023-07-24T04:57:55.288Z,99042.00
2023-07-24T04:58:27.301Z,99049.78
2023-07-24T04:58:59.211Z,99060.09
2023-07-24T04:59:31.100Z,99046.56
2023-07-24T05:00:03.283Z,99050.97
2023-07-24T05:00:35.217Z,99045.22
2023-07-24T05:01:07.167Z,99045.75
2023-07-24T05:01:39.107Z,99048.94
2023-07-24T05:02:11.059Z,99050.31
2023-07-24T05:02:43.097Z,99048.09
2023-07-24T05:03:17.800Z,99050.16
2023-07-24T05:03:49.725Z,99057.78
2023-07-24T05:04:21.632Z,99053.72
2023-07-24T05:04:53.629Z,99057.09
2023-07-24T05:05:25.610Z,99057.28
2023-07-24T05:05:57.873Z,99062.34
2023-07-24T05:06:30.222Z,99064.00
2023-07-24T05:07:02.402Z,99052.53
2023-07-24T05:07:34.392Z,99054.38
2023-07-24T05:08:07.122Z,99059.09
2023-07-24T05:08:39.043Z,99055.41
2023-07-24T05:09:10.935Z,99055.75
2023-07-24T05:09:42.901Z,99062.00
2023-07-24T05:10:14.951Z,99050.16
2023-07-24T05:10:46.900Z,99057.09
2023-07-24T05:11:18.783Z,99058.94
2023-07-24T05:11:50.638Z,99053.22
2023-07-24T05:12:22.514Z,99054.03
2023-07-24T05:12:57.768Z,99056.72
2023-07-24T05:13:29.704Z,99055.06
2023-07-24T05:14:01.599Z,99052.38
2023-07-24T05:14:33.496Z,99062.00
2023-07-24T05:15:05.990Z,99049.97
2023-07-24T05:15:37.920Z,99048.13
2023-07-24T05:16:09.981Z,99050.69
2023-07-24T05:16:42.332Z,99047.28
2023-07-24T05:17:14.609Z,99044.56
2023-07-24T05:17:46.503Z,99043.72
2023-07-24T05:18:18.555Z,99050.34
2023-07-24T05:18:50.417Z,99050.13
2023-07-24T05:19:22.309Z,99043.22
2023-07-24T05:19:54.256Z,99050.84
2023-07-24T05:20:26.168Z,99046.41
2023-07-24T05:20:58.064Z,99055.25
2023-07-24T05:21:30.202Z,99048.81
2023-07-24T05:22:02.143Z,99050.34
2023-07-24T05:22:34.090Z,99040.00
2023-07-24T05:23:06.054Z,99041.16
2023-07-24T05:23:37.930Z,99033.91
2023-07-24T05:24:09.909Z,99040.50
2023-07-24T05:24:42.246Z,99041.16
2023-07-24T05:25:14.354Z,99039.47
2023-07-24T05:25:46.336Z,99040.00
2023-07-24T05:26:18.319Z,99036.78
2023-07-24T05:26:50.281Z,99040.00
2023-07-24T05:27:22.314Z,99039.19
2023-07-24T05:27:54.348Z,99036.78
2023-07-24T05:28:28.645Z,99035.94
2023-07-24T05:29:00.587Z,99034.56
2023-07-24T05:29:35.771Z,99032.72
2023-07-24T05:30:08.132Z,99038.28
2023-07-24T05:30:40.062Z,99037.44
2023-07-24T05:31:12.091Z,99033.88
2023-07-24T05:31:44.063Z,99031.84
2023-07-24T05:32:16.042Z,99034.53
2023-07-24T05:32:48.077Z,99038.91
2023-07-24T05:33:20.121Z,99034.69
2023-07-24T05:33:51.991Z,99032.34
2023-07-24T05:34:23.940Z,99037.06
2023-07-24T05:34:55.814Z,99034.19
2023-07-24T05:35:28.125Z,99032.81
2023-07-24T05:36:04.091Z,99037.69
2023-07-24T05:36:35.988Z,99033.31
2023-07-24T05:37:07.927Z,99034.66
2023-07-24T05:37:39.818Z,99029.88
2023-07-24T05:38:11.981Z,99033.44
2023-07-24T05:38:43.908Z,99026.16
2023-07-24T05:39:15.839Z,99027.50
2023-07-24T05:39:47.887Z,99028.28
2023-07-24T05:40:19.850Z,99022.06
2023-07-24T05:41:03.198Z,99032.53
2023-07-24T05:41:35.175Z,99030.84
2023-07-24T05:42:07.190Z,99029.28
2023-07-24T05:42:42.785Z,99021.47
2023-07-24T05:43:14.881Z,99024.53
2023-07-24T05:43:46.905Z,99019.63
2023-07-24T05:44:18.830Z,99024.22
2023-07-24T05:44:50.727Z,99026.41
2023-07-24T05:45:22.676Z,99026.03
2023-07-24T05:45:56.108Z,99027.22
2023-07-24T05:46:28.214Z,99021.09
2023-07-24T05:47:00.459Z,99023.47
2023-07-24T05:47:32.430Z,99013.84
2023-07-24T05:48:04.540Z,99022.22
2023-07-24T05:48:36.511Z,99016.09
2023-07-24T05:49:08.558Z,99023.06
2023-07-24T05:49:42.679Z,99022.88
2023-07-24T05:50:15.169Z,99025.22
2023-07-24T05:50:47.428Z,99020.59
2023-07-24T05:51:19.337Z,99011.75
2023-07-24T05:51:51.402Z,99021.28
2023-07-24T05:52:23.378Z,99019.88
2023-07-24T05:52:55.266Z,99016.16
2023-07-24T05:53:27.188Z,99020.56
2023-07-24T05:53:59.123Z,99015.09
2023-07-24T05:54:31.025Z,99019.31
2023-07-24T05:55:04.259Z,99025.09
2023-07-24T05:55:36.249Z,99022.19
2023-07-24T05:56:08.269Z,99020.00
2023-07-24T05:56:41.035Z,99013.72
2023-07-24T05:57:13.043Z,99010.16
2023-07-24T05:57:46.023Z,99009.28
2023-07-24T05:58:17.935Z,99017.34
2023-07-24T05:58:50.932Z,99016.31
2023-07-24T05:59:22.846Z,99020.84
2023-07-24T05:59:54.843Z,99020.31
2023-07-24T06:00:26.785Z,99020.34
2023-07-24T06:00:59.363Z,99023.38
2023-07-24T06:01:31.375Z,99017.97
2023-07-24T06:02:03.357Z,99029.63
2023-07-24T06:02:35.306Z,99021.81
2023-07-24T06:03:08.625Z,99027.72
2023-07-24T06:03:40.901Z,99035.34
2023-07-24T06:04:13.064Z,99029.56
2023-07-24T06:04:45.134Z,99023.66
2023-07-24T06:05:17.453Z,99019.41
2023-07-24T06:05:56.082Z,99023.31
2023-07-24T06:06:29.758Z,99023.22
2023-07-24T06:07:01.896Z,99025.03
2023-07-24T06:07:33.851Z,99012.28
2023-07-24T06:08:05.847Z,99021.13
2023-07-24T06:08:37.724Z,99022.25
2023-07-24T06:09:09.614Z,99026.84
2023-07-24T06:09:41.535Z,99021.78
2023-07-24T06:10:13.830Z,99017.34
2023-07-24T06:10:49.006Z,99023.63
2023-07-24T06:11:21.141Z,99025.81
2023-07-24T06:11:53.074Z,99028.16
2023-07-24T06:12:25.110Z,99023.31
2023-07-24T06:12:57.059Z,99022.66
2023-07-24T06:13:28.946Z,99021.34
2023-07-24T06:14:00.816Z,99021.81
2023-07-24T06:14:32.672Z,99024.84
2023-07-24T06:15:05.534Z,99027.81
2023-07-24T06:15:37.495Z,99029.50
2023-07-24T06:16:09.580Z,99022.13
2023-07-24T06:16:41.789Z,99026.53
2023-07-24T06:17:13.964Z,99034.31
2023-07-24T06:17:45.962Z,99026.09
2023-07-24T06:18:17.938Z,99031.53
2023-07-24T06:18:49.843Z,99029.38
2023-07-24T06:19:22.504Z,99024.19
2023-07-24T06:19:54.451Z,99022.69
2023-07-24T06:20:26.312Z,99025.16
2023-07-24T06:20:58.229Z,99027.63
2023-07-24T06:21:30.210Z,99021.81
2023-07-24T06:22:02.094Z,99026.69
2023-07-24T06:22:34.072Z,99026.63
2023-07-24T06:23:06.218Z,99031.97
2023-07-24T06:23:38.176Z,99028.19
2023-07-24T06:24:13.375Z,99019.19